sensor_id;sensor_type;location;lat;lon;timestamp;P1;durP1;ratioP1;P2;durP2;ratioP2
72109;SDS011;59983;52.010;5.420;2022-11-15T00:00:50;40.15;;;22.45;;
72109;SDS011;59983;52.010;5.420;2022-11-15T00:03:19;39.13;;;21.90;;
72109;SDS011;59983;52.010;5.420;2022-11-15T00:05:48;43.10;;;21.60;;
72109;SDS011;59983;52.010;5.420;2022-11-15T00:08:14;43.72;;;22.88;;
72109;SDS011;59983;52.010;5.420;2022-11-15T00:10:41;43.93;;;23.13;;
72109;SDS011;59983;52.010;5.420;2022-11-15T00:13:12;45.22;;;24.65;;
72109;SDS011;59983;52.010;5.420;2022-11-15T00:15:40;43.08;;;22.83;;
72109;SDS011;59983;52.010;5.420;2022-11-15T00:18:13;36.28;;;23.45;;
72109;SDS011;59983;52.010;5.420;2022-11-15T00:20:40;43.35;;;23.45;;
72109;SDS011;59983;52.010;5.420;2022-11-15T00:23:07;40.87;;;22.87;;
72109;SDS011;59983;52.010;5.420;2022-11-15T00:25:33;37.30;;;22.20;;
72109;SDS011;59983;52.010;5.420;2022-11-15T00:28:00;36.47;;;22.83;;
72109;SDS011;59983;52.010;5.420;2022-11-15T00:30:27;40.20;;;21.83;;
72109;SDS011;59983;52.010;5.420;2022-11-15T00:32:54;37.92;;;22.35;;
72109;SDS011;59983;52.010;5.420;2022-11-15T00:35:21;42.10;;;23.17;;
72109;SDS011;59983;52.010;5.420;2022-11-15T00:37:48;37.45;;;22.70;;
72109;SDS011;59983;52.010;5.420;2022-11-15T00:40:14;35.78;;;22.17;;
72109;SDS011;59983;52.010;5.420;2022-11-15T00:42:41;41.10;;;23.30;;
72109;SDS011;59983;52.010;5.420;2022-11-15T00:45:08;40.25;;;23.55;;
72109;SDS011;59983;52.010;5.420;2022-11-15T00:47:35;44.93;;;23.77;;
72109;SDS011;59983;52.010;5.420;2022-11-15T00:50:01;35.63;;;21.67;;
72109;SDS011;59983;52.010;5.420;2022-11-15T00:52:29;37.28;;;23.75;;
72109;SDS011;59983;52.010;5.420;2022-11-15T00:54:55;36.83;;;22.23;;
72109;SDS011;59983;52.010;5.420;2022-11-15T00:57:21;40.78;;;24.20;;
72109;SDS011;59983;52.010;5.420;2022-11-15T00:59:48;39.60;;;24.57;;
72109;SDS011;59983;52.010;5.420;2022-11-15T01:02:14;41.10;;;24.13;;
72109;SDS011;59983;52.010;5.420;2022-11-15T01:04:41;41.95;;;23.17;;
72109;SDS011;59983;52.010;5.420;2022-11-15T01:07:07;37.65;;;22.33;;
72109;SDS011;59983;52.010;5.420;2022-11-15T01:09:34;37.80;;;22.85;;
72109;SDS011;59983;52.010;5.420;2022-11-15T01:12:00;39.60;;;23.43;;
72109;SDS011;59983;52.010;5.420;2022-11-15T01:14:27;39.90;;;22.70;;
72109;SDS011;59983;52.010;5.420;2022-11-15T01:16:53;34.22;;;21.13;;
72109;SDS011;59983;52.010;5.420;2022-11-15T01:19:20;34.55;;;23.10;;
72109;SDS011;59983;52.010;5.420;2022-11-15T01:21:49;40.60;;;24.02;;
72109;SDS011;59983;52.010;5.420;2022-11-15T01:24:17;48.17;;;23.70;;
72109;SDS011;59983;52.010;5.420;2022-11-15T01:26:43;38.97;;;22.75;;
72109;SDS011;59983;52.010;5.420;2022-11-15T01:29:10;35.58;;;22.08;;
72109;SDS011;59983;52.010;5.420;2022-11-15T01:31:36;39.97;;;22.85;;
72109;SDS011;59983;52.010;5.420;2022-11-15T01:34:03;41.85;;;22.33;;
72109;SDS011;59983;52.010;5.420;2022-11-15T01:36:29;40.50;;;23.67;;
72109;SDS011;59983;52.010;5.420;2022-11-15T01:38:56;38.05;;;23.45;;
72109;SDS011;59983;52.010;5.420;2022-11-15T01:41:26;37.75;;;21.65;;
72109;SDS011;59983;52.010;5.420;2022-11-15T01:43:56;42.53;;;22.25;;
72109;SDS011;59983;52.010;5.420;2022-11-15T01:46:43;36.70;;;21.00;;
72109;SDS011;59983;52.010;5.420;2022-11-15T01:49:17;35.80;;;20.60;;
72109;SDS011;59983;52.010;5.420;2022-11-15T01:51:46;35.55;;;21.13;;
72109;SDS011;59983;52.010;5.420;2022-11-15T01:54:14;35.97;;;21.92;;
72109;SDS011;59983;52.010;5.420;2022-11-15T01:56:49;32.60;;;20.83;;
72109;SDS011;59983;52.010;5.420;2022-11-15T01:59:19;34.58;;;22.13;;
72109;SDS011;59983;52.010;5.420;2022-11-15T02:01:46;36.47;;;20.50;;
72109;SDS011;59983;52.010;5.420;2022-11-15T02:04:13;35.35;;;21.02;;
72109;SDS011;59983;52.010;5.420;2022-11-15T02:06:43;34.45;;;21.98;;
72109;SDS011;59983;52.010;5.420;2022-11-15T02:09:11;29.98;;;21.35;;
72109;SDS011;59983;52.010;5.420;2022-11-15T02:11:38;38.35;;;22.52;;
72109;SDS011;59983;52.010;5.420;2022-11-15T02:14:05;33.70;;;21.37;;
72109;SDS011;59983;52.010;5.420;2022-11-15T02:25:11;26.88;;;17.90;;
72109;SDS011;59983;52.010;5.420;2022-11-15T02:30:47;30.30;;;19.30;;
72109;SDS011;59983;52.010;5.420;2022-11-15T02:36:13;28.77;;;20.52;;
72109;SDS011;59983;52.010;5.420;2022-11-15T02:41:46;30.80;;;20.53;;
72109;SDS011;59983;52.010;5.420;2022-11-15T02:46:53;27.25;;;20.45;;
72109;SDS011;59983;52.010;5.420;2022-11-15T02:49:48;23.23;;;19.70;;
72109;SDS011;59983;52.010;5.420;2022-11-15T02:52:19;23.50;;;20.35;;
72109;SDS011;59983;52.010;5.420;2022-11-15T02:54:54;27.70;;;19.90;;
72109;SDS011;59983;52.010;5.420;2022-11-15T02:57:40;25.65;;;19.42;;
72109;SDS011;59983;52.010;5.420;2022-11-15T03:00:18;28.40;;;18.08;;
72109;SDS011;59983;52.010;5.420;2022-11-15T03:08:14;23.53;;;18.40;;
72109;SDS011;59983;52.010;5.420;2022-11-15T03:13:27;22.63;;;19.23;;
72109;SDS011;59983;52.010;5.420;2022-11-15T03:18:38;22.75;;;20.02;;
72109;SDS011;59983;52.010;5.420;2022-11-15T03:21:09;22.67;;;18.20;;
72109;SDS011;59983;52.010;5.420;2022-11-15T03:23:38;23.80;;;18.95;;
72109;SDS011;59983;52.010;5.420;2022-11-15T03:26:07;21.30;;;18.10;;
72109;SDS011;59983;52.010;5.420;2022-11-15T03:28:49;23.73;;;19.08;;
72109;SDS011;59983;52.010;5.420;2022-11-15T03:31:19;24.15;;;18.48;;
72109;SDS011;59983;52.010;5.420;2022-11-15T03:34:37;25.77;;;19.10;;
72109;SDS011;59983;52.010;5.420;2022-11-15T03:37:14;24.55;;;17.85;;
72109;SDS011;59983;52.010;5.420;2022-11-15T03:39:43;24.85;;;18.92;;
72109;SDS011;59983;52.010;5.420;2022-11-15T03:42:27;27.80;;;19.70;;
72109;SDS011;59983;52.010;5.420;2022-11-15T03:45:01;27.23;;;20.83;;
72109;SDS011;59983;52.010;5.420;2022-11-15T03:50:18;30.92;;;20.02;;
72109;SDS011;59983;52.010;5.420;2022-11-15T03:52:47;27.05;;;20.00;;
72109;SDS011;59983;52.010;5.420;2022-11-15T03:55:17;23.65;;;19.40;;
72109;SDS011;59983;52.010;5.420;2022-11-15T03:57:45;23.35;;;19.73;;
72109;SDS011;59983;52.010;5.420;2022-11-15T04:00:14;28.87;;;20.60;;
72109;SDS011;59983;52.010;5.420;2022-11-15T04:02:41;26.23;;;19.45;;
72109;SDS011;59983;52.010;5.420;2022-11-15T04:05:08;23.90;;;19.73;;
72109;SDS011;59983;52.010;5.420;2022-11-15T04:07:34;23.77;;;18.73;;
72109;SDS011;59983;52.010;5.420;2022-11-15T04:10:01;29.65;;;20.52;;
72109;SDS011;59983;52.010;5.420;2022-11-15T04:12:39;25.13;;;19.20;;
72109;SDS011;59983;52.010;5.420;2022-11-15T04:15:12;25.25;;;20.55;;
72109;SDS011;59983;52.010;5.420;2022-11-15T04:17:42;31.20;;;19.70;;
72109;SDS011;59983;52.010;5.420;2022-11-15T04:23:03;28.23;;;18.92;;
72109;SDS011;59983;52.010;5.420;2022-11-15T04:25:52;26.10;;;19.97;;
72109;SDS011;59983;52.010;5.420;2022-11-15T04:28:20;26.55;;;20.45;;
72109;SDS011;59983;52.010;5.420;2022-11-15T04:30:46;31.70;;;21.13;;
72109;SDS011;59983;52.010;5.420;2022-11-15T04:33:13;27.30;;;22.15;;
72109;SDS011;59983;52.010;5.420;2022-11-15T04:35:40;28.35;;;22.08;;
72109;SDS011;59983;52.010;5.420;2022-11-15T04:38:08;32.63;;;23.17;;
72109;SDS011;59983;52.010;5.420;2022-11-15T04:40:36;25.05;;;20.83;;
72109;SDS011;59983;52.010;5.420;2022-11-15T04:43:03;30.73;;;21.52;;
72109;SDS011;59983;52.010;5.420;2022-11-15T04:45:30;28.10;;;21.27;;
72109;SDS011;59983;52.010;5.420;2022-11-15T04:47:56;24.75;;;19.88;;
72109;SDS011;59983;52.010;5.420;2022-11-15T04:50:23;23.73;;;18.87;;
72109;SDS011;59983;52.010;5.420;2022-11-15T04:52:50;25.30;;;20.55;;
72109;SDS011;59983;52.010;5.420;2022-11-15T04:55:19;22.85;;;19.63;;
72109;SDS011;59983;52.010;5.420;2022-11-15T04:57:46;26.48;;;19.15;;
72109;SDS011;59983;52.010;5.420;2022-11-15T05:00:13;22.95;;;19.23;;
72109;SDS011;59983;52.010;5.420;2022-11-15T05:02:41;20.73;;;17.90;;
72109;SDS011;59983;52.010;5.420;2022-11-15T05:05:26;25.35;;;18.63;;
72109;SDS011;59983;52.010;5.420;2022-11-15T05:07:53;23.33;;;18.02;;
72109;SDS011;59983;52.010;5.420;2022-11-15T05:10:19;21.17;;;18.67;;
72109;SDS011;59983;52.010;5.420;2022-11-15T05:12:46;24.15;;;18.70;;
72109;SDS011;59983;52.010;5.420;2022-11-15T05:15:13;26.67;;;18.77;;
72109;SDS011;59983;52.010;5.420;2022-11-15T05:17:39;24.83;;;18.92;;
72109;SDS011;59983;52.010;5.420;2022-11-15T05:20:06;27.20;;;19.38;;
72109;SDS011;59983;52.010;5.420;2022-11-15T05:22:33;22.95;;;18.77;;
72109;SDS011;59983;52.010;5.420;2022-11-15T05:24:59;27.52;;;18.92;;
72109;SDS011;59983;52.010;5.420;2022-11-15T05:27:25;24.80;;;19.00;;
72109;SDS011;59983;52.010;5.420;2022-11-15T05:29:52;23.77;;;18.77;;
72109;SDS011;59983;52.010;5.420;2022-11-15T05:32:18;23.65;;;18.25;;
72109;SDS011;59983;52.010;5.420;2022-11-15T05:34:45;25.42;;;19.20;;
72109;SDS011;59983;52.010;5.420;2022-11-15T05:37:12;21.75;;;18.52;;
72109;SDS011;59983;52.010;5.420;2022-11-15T05:39:39;23.90;;;19.10;;
72109;SDS011;59983;52.010;5.420;2022-11-15T05:42:07;26.55;;;19.13;;
72109;SDS011;59983;52.010;5.420;2022-11-15T05:44:36;23.77;;;18.95;;
72109;SDS011;59983;52.010;5.420;2022-11-15T05:47:05;21.65;;;18.42;;
72109;SDS011;59983;52.010;5.420;2022-11-15T05:49:35;27.75;;;19.48;;
72109;SDS011;59983;52.010;5.420;2022-11-15T05:52:04;23.67;;;19.03;;
72109;SDS011;59983;52.010;5.420;2022-11-15T05:54:33;22.40;;;19.55;;
72109;SDS011;59983;52.010;5.420;2022-11-15T05:57:01;28.10;;;21.38;;
72109;SDS011;59983;52.010;5.420;2022-11-15T05:59:30;26.95;;;19.92;;
72109;SDS011;59983;52.010;5.420;2022-11-15T06:01:57;26.58;;;19.80;;
72109;SDS011;59983;52.010;5.420;2022-11-15T06:04:24;29.10;;;18.07;;
72109;SDS011;59983;52.010;5.420;2022-11-15T06:06:51;26.52;;;19.17;;
72109;SDS011;59983;52.010;5.420;2022-11-15T06:09:17;28.60;;;19.38;;
72109;SDS011;59983;52.010;5.420;2022-11-15T06:11:44;31.20;;;19.67;;
72109;SDS011;59983;52.010;5.420;2022-11-15T06:14:10;25.88;;;20.27;;
72109;SDS011;59983;52.010;5.420;2022-11-15T06:16:37;25.47;;;19.30;;
72109;SDS011;59983;52.010;5.420;2022-11-15T06:19:03;30.60;;;19.10;;
72109;SDS011;59983;52.010;5.420;2022-11-15T06:21:32;28.20;;;18.15;;
72109;SDS011;59983;52.010;5.420;2022-11-15T06:23:58;29.95;;;19.35;;
72109;SDS011;59983;52.010;5.420;2022-11-15T06:26:24;22.40;;;17.80;;
72109;SDS011;59983;52.010;5.420;2022-11-15T06:28:51;24.23;;;17.67;;
72109;SDS011;59983;52.010;5.420;2022-11-15T06:31:17;24.83;;;19.42;;
72109;SDS011;59983;52.010;5.420;2022-11-15T06:33:44;24.05;;;18.20;;
72109;SDS011;59983;52.010;5.420;2022-11-15T06:36:11;25.27;;;18.40;;
72109;SDS011;59983;52.010;5.420;2022-11-15T06:38:43;27.20;;;18.88;;
72109;SDS011;59983;52.010;5.420;2022-11-15T06:41:10;23.47;;;19.07;;
72109;SDS011;59983;52.010;5.420;2022-11-15T06:43:38;23.33;;;18.70;;
72109;SDS011;59983;52.010;5.420;2022-11-15T06:46:05;25.60;;;18.23;;
72109;SDS011;59983;52.010;5.420;2022-11-15T06:48:32;23.85;;;18.13;;
72109;SDS011;59983;52.010;5.420;2022-11-15T06:51:00;26.17;;;17.33;;
72109;SDS011;59983;52.010;5.420;2022-11-15T06:53:29;28.93;;;18.37;;
72109;SDS011;59983;52.010;5.420;2022-11-15T06:56:00;25.08;;;18.55;;
72109;SDS011;59983;52.010;5.420;2022-11-15T06:58:28;22.60;;;16.85;;
72109;SDS011;59983;52.010;5.420;2022-11-15T07:01:02;26.88;;;18.25;;
72109;SDS011;59983;52.010;5.420;2022-11-15T07:03:37;26.80;;;18.10;;
72109;SDS011;59983;52.010;5.420;2022-11-15T07:06:05;28.63;;;20.10;;
72109;SDS011;59983;52.010;5.420;2022-11-15T07:08:33;23.75;;;17.73;;
72109;SDS011;59983;52.010;5.420;2022-11-15T07:11:01;24.48;;;18.63;;
72109;SDS011;59983;52.010;5.420;2022-11-15T07:13:30;22.98;;;19.08;;
72109;SDS011;59983;52.010;5.420;2022-11-15T07:16:04;24.38;;;19.23;;
72109;SDS011;59983;52.010;5.420;2022-11-15T07:18:34;23.57;;;18.67;;
72109;SDS011;59983;52.010;5.420;2022-11-15T07:21:02;23.08;;;18.48;;
72109;SDS011;59983;52.010;5.420;2022-11-15T07:23:29;22.50;;;17.77;;
72109;SDS011;59983;52.010;5.420;2022-11-15T07:25:57;22.13;;;18.00;;
72109;SDS011;59983;52.010;5.420;2022-11-15T07:28:25;26.80;;;17.92;;
72109;SDS011;59983;52.010;5.420;2022-11-15T07:30:52;23.03;;;17.37;;
72109;SDS011;59983;52.010;5.420;2022-11-15T07:33:18;22.23;;;17.17;;
72109;SDS011;59983;52.010;5.420;2022-11-15T07:35:45;24.45;;;17.08;;
72109;SDS011;59983;52.010;5.420;2022-11-15T07:38:15;22.70;;;16.42;;
72109;SDS011;59983;52.010;5.420;2022-11-15T07:40:45;20.80;;;16.60;;
72109;SDS011;59983;52.010;5.420;2022-11-15T07:43:12;20.97;;;15.97;;
72109;SDS011;59983;52.010;5.420;2022-11-15T07:45:42;24.98;;;16.85;;
72109;SDS011;59983;52.010;5.420;2022-11-15T07:48:10;22.98;;;16.73;;
72109;SDS011;59983;52.010;5.420;2022-11-15T07:50:37;25.02;;;17.77;;
72109;SDS011;59983;52.010;5.420;2022-11-15T07:53:07;21.73;;;16.00;;
72109;SDS011;59983;52.010;5.420;2022-11-15T07:55:34;24.37;;;17.30;;
72109;SDS011;59983;52.010;5.420;2022-11-15T07:58:05;20.63;;;15.30;;
72109;SDS011;59983;52.010;5.420;2022-11-15T08:00:33;21.75;;;16.15;;
72109;SDS011;59983;52.010;5.420;2022-11-15T08:03:01;20.48;;;15.15;;
72109;SDS011;59983;52.010;5.420;2022-11-15T08:05:38;18.75;;;15.15;;
72109;SDS011;59983;52.010;5.420;2022-11-15T08:08:06;21.80;;;15.83;;
72109;SDS011;59983;52.010;5.420;2022-11-15T08:10:34;21.05;;;16.05;;
72109;SDS011;59983;52.010;5.420;2022-11-15T08:13:07;22.73;;;15.52;;
72109;SDS011;59983;52.010;5.420;2022-11-15T08:15:36;17.35;;;15.55;;
72109;SDS011;59983;52.010;5.420;2022-11-15T08:18:04;21.63;;;15.30;;
72109;SDS011;59983;52.010;5.420;2022-11-15T08:20:32;21.20;;;14.37;;
72109;SDS011;59983;52.010;5.420;2022-11-15T08:23:00;20.70;;;14.95;;
72109;SDS011;59983;52.010;5.420;2022-11-15T08:25:29;18.55;;;14.75;;
72109;SDS011;59983;52.010;5.420;2022-11-15T08:27:59;18.52;;;14.35;;
72109;SDS011;59983;52.010;5.420;2022-11-15T08:30:27;21.42;;;15.63;;
72109;SDS011;59983;52.010;5.420;2022-11-15T08:32:55;21.73;;;15.27;;
72109;SDS011;59983;52.010;5.420;2022-11-15T08:35:23;20.92;;;15.40;;
72109;SDS011;59983;52.010;5.420;2022-11-15T08:37:54;17.85;;;14.70;;
72109;SDS011;59983;52.010;5.420;2022-11-15T08:40:21;18.52;;;14.73;;
72109;SDS011;59983;52.010;5.420;2022-11-15T08:42:49;18.45;;;14.85;;
72109;SDS011;59983;52.010;5.420;2022-11-15T08:45:15;22.53;;;15.83;;
72109;SDS011;59983;52.010;5.420;2022-11-15T08:47:42;21.63;;;16.35;;
72109;SDS011;59983;52.010;5.420;2022-11-15T08:50:08;17.67;;;14.07;;
72109;SDS011;59983;52.010;5.420;2022-11-15T08:52:35;20.70;;;14.85;;
72109;SDS011;59983;52.010;5.420;2022-11-15T08:55:01;19.27;;;13.95;;
72109;SDS011;59983;52.010;5.420;2022-11-15T08:57:28;18.70;;;14.77;;
72109;SDS011;59983;52.010;5.420;2022-11-15T08:59:58;18.35;;;14.80;;
72109;SDS011;59983;52.010;5.420;2022-11-15T09:02:24;20.52;;;15.07;;
72109;SDS011;59983;52.010;5.420;2022-11-15T09:04:51;19.92;;;15.00;;
72109;SDS011;59983;52.010;5.420;2022-11-15T09:07:17;18.40;;;14.00;;
72109;SDS011;59983;52.010;5.420;2022-11-15T09:09:44;17.00;;;13.57;;
72109;SDS011;59983;52.010;5.420;2022-11-15T09:12:11;15.55;;;13.25;;
72109;SDS011;59983;52.010;5.420;2022-11-15T09:14:37;16.80;;;13.20;;
72109;SDS011;59983;52.010;5.420;2022-11-15T09:17:06;17.17;;;13.18;;
72109;SDS011;59983;52.010;5.420;2022-11-15T09:19:34;16.88;;;13.73;;
72109;SDS011;59983;52.010;5.420;2022-11-15T09:22:01;20.13;;;12.53;;
72109;SDS011;59983;52.010;5.420;2022-11-15T09:24:27;16.13;;;12.27;;
72109;SDS011;59983;52.010;5.420;2022-11-15T09:26:54;14.15;;;12.52;;
72109;SDS011;59983;52.010;5.420;2022-11-15T09:29:20;15.50;;;12.35;;
72109;SDS011;59983;52.010;5.420;2022-11-15T09:31:47;17.23;;;12.07;;
72109;SDS011;59983;52.010;5.420;2022-11-15T09:34:13;14.73;;;11.30;;
72109;SDS011;59983;52.010;5.420;2022-11-15T09:36:39;15.13;;;10.82;;
72109;SDS011;59983;52.010;5.420;2022-11-15T09:39:06;15.93;;;10.60;;
72109;SDS011;59983;52.010;5.420;2022-11-15T09:41:48;12.10;;;10.40;;
72109;SDS011;59983;52.010;5.420;2022-11-15T09:44:21;10.38;;;9.48;;
72109;SDS011;59983;52.010;5.420;2022-11-15T09:47:16;11.30;;;10.37;;
72109;SDS011;59983;52.010;5.420;2022-11-15T09:49:51;11.10;;;10.02;;
72109;SDS011;59983;52.010;5.420;2022-11-15T09:52:23;11.07;;;9.95;;
72109;SDS011;59983;52.010;5.420;2022-11-15T09:54:51;9.07;;;8.25;;
72109;SDS011;59983;52.010;5.420;2022-11-15T09:57:31;10.82;;;9.80;;
72109;SDS011;59983;52.010;5.420;2022-11-15T10:05:47;8.82;;;8.00;;
72109;SDS011;59983;52.010;5.420;2022-11-15T10:08:28;10.65;;;8.45;;
72109;SDS011;59983;52.010;5.420;2022-11-15T10:11:06;9.38;;;8.48;;
72109;SDS011;59983;52.010;5.420;2022-11-15T10:13:56;9.03;;;6.87;;
72109;SDS011;59983;52.010;5.420;2022-11-15T10:16:40;6.97;;;6.32;;
72109;SDS011;59983;52.010;5.420;2022-11-15T10:19:34;7.78;;;6.45;;
72109;SDS011;59983;52.010;5.420;2022-11-15T10:27:34;6.73;;;6.23;;
72109;SDS011;59983;52.010;5.420;2022-11-15T10:30:01;7.22;;;6.63;;
72109;SDS011;59983;52.010;5.420;2022-11-15T10:32:36;7.00;;;6.40;;
72109;SDS011;59983;52.010;5.420;2022-11-15T10:35:15;6.43;;;5.93;;
72109;SDS011;59983;52.010;5.420;2022-11-15T10:37:43;6.80;;;6.30;;
72109;SDS011;59983;52.010;5.420;2022-11-15T10:40:23;7.23;;;6.63;;
72109;SDS011;59983;52.010;5.420;2022-11-15T10:45:36;7.22;;;5.70;;
72109;SDS011;59983;52.010;5.420;2022-11-15T10:50:40;7.22;;;6.50;;
72109;SDS011;59983;52.010;5.420;2022-11-15T10:55:48;6.22;;;5.80;;
72109;SDS011;59983;52.010;5.420;2022-11-15T10:58:31;6.57;;;5.03;;
72109;SDS011;59983;52.010;5.420;2022-11-15T11:01:11;5.93;;;5.50;;
72109;SDS011;59983;52.010;5.420;2022-11-15T11:03:40;5.88;;;5.38;;
72109;SDS011;59983;52.010;5.420;2022-11-15T11:06:12;5.47;;;5.00;;
72109;SDS011;59983;52.010;5.420;2022-11-15T11:08:52;5.07;;;4.72;;
72109;SDS011;59983;52.010;5.420;2022-11-15T11:11:24;5.93;;;5.50;;
72109;SDS011;59983;52.010;5.420;2022-11-15T11:13:51;5.50;;;5.07;;
72109;SDS011;59983;52.010;5.420;2022-11-15T11:24:41;5.85;;;5.35;;
72109;SDS011;59983;52.010;5.420;2022-11-15T11:32:59;4.97;;;4.67;;
72109;SDS011;59983;52.010;5.420;2022-11-15T11:44:32;3.97;;;3.67;;
72109;SDS011;59983;52.010;5.420;2022-11-15T11:50:00;4.93;;;4.53;;
72109;SDS011;59983;52.010;5.420;2022-11-15T11:55:39;3.88;;;3.65;;
72109;SDS011;59983;52.010;5.420;2022-11-15T11:58:17;5.15;;;3.67;;
72109;SDS011;59983;52.010;5.420;2022-11-15T12:00:53;3.93;;;3.57;;
72109;SDS011;59983;52.010;5.420;2022-11-15T12:03:25;3.70;;;3.40;;
72109;SDS011;59983;52.010;5.420;2022-11-15T12:06:06;3.83;;;3.50;;
72109;SDS011;59983;52.010;5.420;2022-11-15T12:08:53;5.63;;;3.42;;
72109;SDS011;59983;52.010;5.420;2022-11-15T12:11:29;3.47;;;3.35;;
72109;SDS011;59983;52.010;5.420;2022-11-15T12:13:58;3.27;;;3.07;;
72109;SDS011;59983;52.010;5.420;2022-11-15T12:16:28;4.00;;;3.63;;
72109;SDS011;59983;52.010;5.420;2022-11-15T12:18:58;5.95;;;3.20;;
72109;SDS011;59983;52.010;5.420;2022-11-15T12:21:32;3.72;;;3.30;;
72109;SDS011;59983;52.010;5.420;2022-11-15T12:24:27;3.75;;;3.40;;
72109;SDS011;59983;52.010;5.420;2022-11-15T12:29:27;3.85;;;3.03;;
72109;SDS011;59983;52.010;5.420;2022-11-15T12:32:27;3.25;;;3.05;;
72109;SDS011;59983;52.010;5.420;2022-11-15T12:34:57;4.07;;;3.65;;
72109;SDS011;59983;52.010;5.420;2022-11-15T12:45:32;3.63;;;3.15;;
72109;SDS011;59983;52.010;5.420;2022-11-15T12:50:53;5.50;;;2.88;;
72109;SDS011;59983;52.010;5.420;2022-11-15T13:06:46;3.87;;;3.13;;
72109;SDS011;59983;52.010;5.420;2022-11-15T13:11:54;5.32;;;3.67;;
72109;SDS011;59983;52.010;5.420;2022-11-15T13:14:38;3.70;;;3.40;;
72109;SDS011;59983;52.010;5.420;2022-11-15T13:33:20;4.20;;;3.77;;
72109;SDS011;59983;52.010;5.420;2022-11-15T13:35:53;4.28;;;3.90;;
72109;SDS011;59983;52.010;5.420;2022-11-15T13:40:53;4.18;;;3.78;;
72109;SDS011;59983;52.010;5.420;2022-11-15T13:48:31;5.05;;;4.45;;
72109;SDS011;59983;52.010;5.420;2022-11-15T13:51:01;4.22;;;3.92;;
72109;SDS011;59983;52.010;5.420;2022-11-15T13:53:32;3.78;;;3.58;;
72109;SDS011;59983;52.010;5.420;2022-11-15T13:55:59;4.43;;;4.03;;
72109;SDS011;59983;52.010;5.420;2022-11-15T13:58:27;5.23;;;4.17;;
72109;SDS011;59983;52.010;5.420;2022-11-15T14:01:00;4.70;;;4.30;;
72109;SDS011;59983;52.010;5.420;2022-11-15T14:03:31;4.70;;;4.28;;
72109;SDS011;59983;52.010;5.420;2022-11-15T14:06:07;4.75;;;4.43;;
72109;SDS011;59983;52.010;5.420;2022-11-15T14:08:39;5.00;;;4.68;;
72109;SDS011;59983;52.010;5.420;2022-11-15T14:11:27;5.57;;;4.00;;
72109;SDS011;59983;52.010;5.420;2022-11-15T14:25:13;6.60;;;4.57;;
72109;SDS011;59983;52.010;5.420;2022-11-15T14:28:07;4.75;;;4.35;;
72109;SDS011;59983;52.010;5.420;2022-11-15T14:30:38;4.57;;;4.15;;
72109;SDS011;59983;52.010;5.420;2022-11-15T14:35:51;4.18;;;3.75;;
72109;SDS011;59983;52.010;5.420;2022-11-15T14:38:18;7.00;;;4.13;;
72109;SDS011;59983;52.010;5.420;2022-11-15T14:40:45;5.53;;;4.78;;
72109;SDS011;59983;52.010;5.420;2022-11-15T14:43:11;6.07;;;5.57;;
72109;SDS011;59983;52.010;5.420;2022-11-15T14:45:38;5.53;;;4.38;;
72109;SDS011;59983;52.010;5.420;2022-11-15T14:48:05;4.45;;;4.15;;
72109;SDS011;59983;52.010;5.420;2022-11-15T14:50:32;5.17;;;4.53;;
72109;SDS011;59983;52.010;5.420;2022-11-15T14:53:00;4.30;;;3.72;;
72109;SDS011;59983;52.010;5.420;2022-11-15T14:55:31;3.90;;;3.53;;
72109;SDS011;59983;52.010;5.420;2022-11-15T14:58:01;4.15;;;3.95;;
72109;SDS011;59983;52.010;5.420;2022-11-15T15:00:32;5.78;;;3.50;;
72109;SDS011;59983;52.010;5.420;2022-11-15T15:03:00;4.53;;;3.70;;
72109;SDS011;59983;52.010;5.420;2022-11-15T15:05:32;4.25;;;4.05;;
72109;SDS011;59983;52.010;5.420;2022-11-15T15:08:01;4.70;;;4.30;;
72109;SDS011;59983;52.010;5.420;2022-11-15T15:10:31;4.18;;;3.78;;
72109;SDS011;59983;52.010;5.420;2022-11-15T15:13:14;5.38;;;4.68;;
72109;SDS011;59983;52.010;5.420;2022-11-15T15:15:46;4.50;;;4.20;;
72109;SDS011;59983;52.010;5.420;2022-11-15T15:18:13;4.90;;;4.50;;
72109;SDS011;59983;52.010;5.420;2022-11-15T15:20:42;3.63;;;3.33;;
72109;SDS011;59983;52.010;5.420;2022-11-15T15:23:19;3.35;;;3.15;;
72109;SDS011;59983;52.010;5.420;2022-11-15T15:25:46;4.32;;;3.92;;
72109;SDS011;59983;52.010;5.420;2022-11-15T15:28:15;5.70;;;3.57;;
72109;SDS011;59983;52.010;5.420;2022-11-15T15:30:41;5.70;;;4.28;;
72109;SDS011;59983;52.010;5.420;2022-11-15T15:33:08;4.60;;;4.20;;
72109;SDS011;59983;52.010;5.420;2022-11-15T15:35:34;3.95;;;3.75;;
72109;SDS011;59983;52.010;5.420;2022-11-15T15:38:01;4.20;;;3.60;;
72109;SDS011;59983;52.010;5.420;2022-11-15T15:40:29;4.80;;;4.00;;
72109;SDS011;59983;52.010;5.420;2022-11-15T15:42:57;4.72;;;4.43;;
72109;SDS011;59983;52.010;5.420;2022-11-15T15:45:25;4.93;;;4.53;;
72109;SDS011;59983;52.010;5.420;2022-11-15T15:47:53;5.90;;;4.28;;
72109;SDS011;59983;52.010;5.420;2022-11-15T15:50:27;6.30;;;4.35;;
72109;SDS011;59983;52.010;5.420;2022-11-15T15:52:56;4.23;;;3.83;;
72109;SDS011;59983;52.010;5.420;2022-11-15T15:55:24;4.30;;;3.90;;
72109;SDS011;59983;52.010;5.420;2022-11-15T15:57:51;7.82;;;3.72;;
72109;SDS011;59983;52.010;5.420;2022-11-15T16:00:18;4.22;;;3.83;;
72109;SDS011;59983;52.010;5.420;2022-11-15T16:02:46;3.90;;;3.35;;
72109;SDS011;59983;52.010;5.420;2022-11-15T16:05:13;4.00;;;3.80;;
72109;SDS011;59983;52.010;5.420;2022-11-15T16:07:40;4.47;;;4.07;;
72109;SDS011;59983;52.010;5.420;2022-11-15T16:10:55;5.38;;;3.20;;
72109;SDS011;59983;52.010;5.420;2022-11-15T16:12:57;3.33;;;3.10;;
72109;SDS011;59983;52.010;5.420;2022-11-15T16:15:25;4.45;;;4.05;;
72109;SDS011;59983;52.010;5.420;2022-11-15T16:17:54;4.03;;;3.83;;
72109;SDS011;59983;52.010;5.420;2022-11-15T16:20:23;5.47;;;3.05;;
72109;SDS011;59983;52.010;5.420;2022-11-15T16:22:52;4.47;;;3.05;;
72109;SDS011;59983;52.010;5.420;2022-11-15T16:25:19;3.83;;;3.63;;
72109;SDS011;59983;52.010;5.420;2022-11-15T16:27:45;3.50;;;3.30;;
72109;SDS011;59983;52.010;5.420;2022-11-15T16:30:16;3.70;;;3.40;;
72109;SDS011;59983;52.010;5.420;2022-11-15T16:32:44;2.72;;;2.63;;
72109;SDS011;59983;52.010;5.420;2022-11-15T16:35:12;5.57;;;3.33;;
72109;SDS011;59983;52.010;5.420;2022-11-15T16:37:40;5.72;;;3.15;;
72109;SDS011;59983;52.010;5.420;2022-11-15T16:40:12;4.05;;;3.40;;
72109;SDS011;59983;52.010;5.420;2022-11-15T16:42:46;5.13;;;3.73;;
72109;SDS011;59983;52.010;5.420;2022-11-15T16:45:13;6.20;;;3.28;;
72109;SDS011;59983;52.010;5.420;2022-11-15T16:47:39;4.30;;;3.70;;
72109;SDS011;59983;52.010;5.420;2022-11-15T16:50:08;3.67;;;3.38;;
72109;SDS011;59983;52.010;5.420;2022-11-15T16:52:44;3.55;;;3.33;;
72109;SDS011;59983;52.010;5.420;2022-11-15T16:55:10;5.03;;;3.60;;
72109;SDS011;59983;52.010;5.420;2022-11-15T16:57:37;8.15;;;3.63;;
72109;SDS011;59983;52.010;5.420;2022-11-15T17:00:04;3.60;;;3.40;;
72109;SDS011;59983;52.010;5.420;2022-11-15T17:02:31;6.50;;;3.85;;
72109;SDS011;59983;52.010;5.420;2022-11-15T17:04:59;4.53;;;3.72;;
72109;SDS011;59983;52.010;5.420;2022-11-15T17:07:30;4.30;;;3.97;;
72109;SDS011;59983;52.010;5.420;2022-11-15T17:09:57;4.10;;;3.90;;
72109;SDS011;59983;52.010;5.420;2022-11-15T17:12:23;3.85;;;3.47;;
72109;SDS011;59983;52.010;5.420;2022-11-15T17:14:50;5.32;;;4.90;;
72109;SDS011;59983;52.010;5.420;2022-11-15T17:17:16;6.50;;;5.30;;
72109;SDS011;59983;52.010;5.420;2022-11-15T17:19:43;5.20;;;4.60;;